sensor_id;sensor_type;location;lat;lon;timestamp;P1;durP1;ratioP1;P2;durP2;ratioP2
34924;SDS011;21130;51.728;8.748;2023-04-03T00:00:36;10.68;;;5.05;;
34924;SDS011;21130;51.728;8.748;2023-04-03T00:03:02;20.15;;;7.82;;
34924;SDS011;21130;51.728;8.748;2023-04-03T00:05:30;23.98;;;9.48;;
34924;SDS011;21130;51.728;8.748;2023-04-03T00:07:56;19.90;;;7.85;;
34924;SDS011;21130;51.728;8.748;2023-04-03T00:10:23;9.25;;;3.90;;
34924;SDS011;21130;51.728;8.748;2023-04-03T00:12:49;10.35;;;3.72;;
34924;SDS011;21130;51.728;8.748;2023-04-03T00:15:16;8.25;;;3.67;;
34924;SDS011;21130;51.728;8.748;2023-04-03T00:17:45;11.27;;;5.00;;
34924;SDS011;21130;51.728;8.748;2023-04-03T00:20:12;12.07;;;5.32;;
34924;SDS011;21130;51.728;8.748;2023-04-03T00:22:40;23.02;;;8.80;;
34924;SDS011;21130;51.728;8.748;2023-04-03T00:25:06;7.93;;;3.85;;
34924;SDS011;21130;51.728;8.748;2023-04-03T00:27:35;9.20;;;3.95;;
34924;SDS011;21130;51.728;8.748;2023-04-03T00:30:02;5.38;;;2.60;;
34924;SDS011;21130;51.728;8.748;2023-04-03T00:32:29;7.28;;;2.53;;
34924;SDS011;21130;51.728;8.748;2023-04-03T00:34:56;6.18;;;2.53;;
34924;SDS011;21130;51.728;8.748;2023-04-03T00:37:22;4.63;;;2.17;;
34924;SDS011;21130;51.728;8.748;2023-04-03T00:39:50;8.13;;;3.05;;
34924;SDS011;21130;51.728;8.748;2023-04-03T00:42:17;7.75;;;3.53;;
34924;SDS011;21130;51.728;8.748;2023-04-03T00:47:49;5.82;;;3.17;;
34924;SDS011;21130;51.728;8.748;2023-04-03T00:50:16;6.47;;;2.75;;
34924;SDS011;21130;51.728;8.748;2023-04-03T00:52:43;4.32;;;2.60;;
34924;SDS011;21130;51.728;8.748;2023-04-03T00:55:12;6.50;;;2.20;;
34924;SDS011;21130;51.728;8.748;2023-04-03T00:57:39;5.53;;;2.20;;
34924;SDS011;21130;51.728;8.748;2023-04-03T01:00:07;5.35;;;2.08;;
34924;SDS011;21130;51.728;8.748;2023-04-03T01:02:36;5.00;;;2.20;;
34924;SDS011;21130;51.728;8.748;2023-04-03T01:05:03;7.85;;;2.63;;
34924;SDS011;21130;51.728;8.748;2023-04-03T01:07:31;5.35;;;2.58;;
34924;SDS011;21130;51.728;8.748;2023-04-03T01:09:59;5.30;;;2.33;;
34924;SDS011;21130;51.728;8.748;2023-04-03T01:12:29;5.10;;;2.55;;
34924;SDS011;21130;51.728;8.748;2023-04-03T01:14:59;7.30;;;3.00;;
34924;SDS011;21130;51.728;8.748;2023-04-03T01:17:28;5.63;;;2.72;;
34924;SDS011;21130;51.728;8.748;2023-04-03T01:20:02;5.50;;;2.67;;
34924;SDS011;21130;51.728;8.748;2023-04-03T01:22:51;5.43;;;3.22;;
34924;SDS011;21130;51.728;8.748;2023-04-03T01:25:23;6.10;;;2.33;;
34924;SDS011;21130;51.728;8.748;2023-04-03T01:27:51;8.60;;;2.67;;
34924;SDS011;21130;51.728;8.748;2023-04-03T01:30:18;4.88;;;2.75;;
34924;SDS011;21130;51.728;8.748;2023-04-03T01:32:47;4.45;;;2.42;;
34924;SDS011;21130;51.728;8.748;2023-04-03T01:35:13;8.00;;;2.28;;
34924;SDS011;21130;51.728;8.748;2023-04-03T01:37:40;7.18;;;2.95;;
34924;SDS011;21130;51.728;8.748;2023-04-03T01:40:07;6.15;;;2.80;;
34924;SDS011;21130;51.728;8.748;2023-04-03T01:42:34;5.45;;;2.25;;
34924;SDS011;21130;51.728;8.748;2023-04-03T01:45:01;5.35;;;2.65;;
34924;SDS011;21130;51.728;8.748;2023-04-03T01:47:29;6.47;;;2.92;;
34924;SDS011;21130;51.728;8.748;2023-04-03T01:49:57;4.45;;;2.90;;
34924;SDS011;21130;51.728;8.748;2023-04-03T01:52:23;7.30;;;2.80;;
34924;SDS011;21130;51.728;8.748;2023-04-03T01:54:50;4.28;;;2.90;;
34924;SDS011;21130;51.728;8.748;2023-04-03T01:57:16;6.22;;;2.63;;
34924;SDS011;21130;51.728;8.748;2023-04-03T01:59:42;5.57;;;2.50;;
34924;SDS011;21130;51.728;8.748;2023-04-03T02:02:09;4.80;;;2.38;;
34924;SDS011;21130;51.728;8.748;2023-04-03T02:04:37;4.85;;;2.80;;
34924;SDS011;21130;51.728;8.748;2023-04-03T02:07:05;6.25;;;2.92;;
34924;SDS011;21130;51.728;8.748;2023-04-03T02:09:31;6.25;;;2.42;;
34924;SDS011;21130;51.728;8.748;2023-04-03T02:11:58;7.78;;;2.72;;
34924;SDS011;21130;51.728;8.748;2023-04-03T02:14:24;5.63;;;2.45;;
34924;SDS011;21130;51.728;8.748;2023-04-03T02:16:52;6.47;;;3.42;;
34924;SDS011;21130;51.728;8.748;2023-04-03T02:19:18;6.35;;;2.80;;
34924;SDS011;21130;51.728;8.748;2023-04-03T02:21:45;5.82;;;2.70;;
34924;SDS011;21130;51.728;8.748;2023-04-03T02:24:13;5.10;;;2.65;;
34924;SDS011;21130;51.728;8.748;2023-04-03T02:26:39;4.47;;;2.60;;
34924;SDS011;21130;51.728;8.748;2023-04-03T02:29:05;6.75;;;2.90;;
34924;SDS011;21130;51.728;8.748;2023-04-03T02:31:32;6.43;;;2.72;;
34924;SDS011;21130;51.728;8.748;2023-04-03T02:33:58;5.47;;;2.40;;
34924;SDS011;21130;51.728;8.748;2023-04-03T02:36:25;3.72;;;2.50;;
34924;SDS011;21130;51.728;8.748;2023-04-03T02:38:51;6.05;;;2.78;;
34924;SDS011;21130;51.728;8.748;2023-04-03T02:41:19;4.40;;;2.63;;
34924;SDS011;21130;51.728;8.748;2023-04-03T02:43:46;6.00;;;2.78;;
34924;SDS011;21130;51.728;8.748;2023-04-03T02:46:13;5.85;;;2.28;;
34924;SDS011;21130;51.728;8.748;2023-04-03T02:48:40;3.80;;;2.30;;
34924;SDS011;21130;51.728;8.748;2023-04-03T02:51:06;9.82;;;2.50;;
34924;SDS011;21130;51.728;8.748;2023-04-03T02:53:33;4.70;;;2.50;;
34924;SDS011;21130;51.728;8.748;2023-04-03T02:55:59;4.93;;;2.47;;
34924;SDS011;21130;51.728;8.748;2023-04-03T02:58:27;7.68;;;2.70;;
34924;SDS011;21130;51.728;8.748;2023-04-03T03:00:53;8.02;;;2.90;;
34924;SDS011;21130;51.728;8.748;2023-04-03T03:03:20;5.05;;;2.47;;
34924;SDS011;21130;51.728;8.748;2023-04-03T03:05:46;7.57;;;2.25;;
34924;SDS011;21130;51.728;8.748;2023-04-03T03:08:13;4.28;;;2.50;;
34924;SDS011;21130;51.728;8.748;2023-04-03T03:10:40;5.43;;;2.83;;
34924;SDS011;21130;51.728;8.748;2023-04-03T03:13:06;5.07;;;2.70;;
34924;SDS011;21130;51.728;8.748;2023-04-03T03:15:34;5.70;;;2.20;;
34924;SDS011;21130;51.728;8.748;2023-04-03T03:18:00;7.30;;;2.65;;
34924;SDS011;21130;51.728;8.748;2023-04-03T03:20:27;7.90;;;2.78;;
34924;SDS011;21130;51.728;8.748;2023-04-03T03:22:53;2.63;;;2.20;;
34924;SDS011;21130;51.728;8.748;2023-04-03T03:25:19;6.28;;;2.65;;
34924;SDS011;21130;51.728;8.748;2023-04-03T03:27:46;5.07;;;2.60;;
34924;SDS011;21130;51.728;8.748;2023-04-03T03:30:12;6.32;;;2.60;;
34924;SDS011;21130;51.728;8.748;2023-04-03T03:32:40;7.78;;;2.95;;
34924;SDS011;21130;51.728;8.748;2023-04-03T03:35:06;13.13;;;4.95;;
34924;SDS011;21130;51.728;8.748;2023-04-03T03:37:33;7.20;;;4.10;;
34924;SDS011;21130;51.728;8.748;2023-04-03T03:40:00;10.52;;;3.53;;
34924;SDS011;21130;51.728;8.748;2023-04-03T03:42:26;6.78;;;4.07;;
34924;SDS011;21130;51.728;8.748;2023-04-03T03:44:53;7.85;;;4.10;;
34924;SDS011;21130;51.728;8.748;2023-04-03T03:47:19;11.43;;;4.65;;
34924;SDS011;21130;51.728;8.748;2023-04-03T03:49:50;8.38;;;5.38;;
34924;SDS011;21130;51.728;8.748;2023-04-03T03:52:17;8.85;;;4.03;;
34924;SDS011;21130;51.728;8.748;2023-04-03T03:54:43;5.60;;;3.13;;
34924;SDS011;21130;51.728;8.748;2023-04-03T03:57:09;5.55;;;2.65;;
34924;SDS011;21130;51.728;8.748;2023-04-03T03:59:36;7.00;;;2.38;;
34924;SDS011;21130;51.728;8.748;2023-04-03T04:02:02;5.03;;;2.90;;
34924;SDS011;21130;51.728;8.748;2023-04-03T04:04:29;4.88;;;2.60;;
34924;SDS011;21130;51.728;8.748;2023-04-03T04:06:56;6.82;;;2.42;;
34924;SDS011;21130;51.728;8.748;2023-04-03T04:09:25;6.43;;;2.22;;
34924;SDS011;21130;51.728;8.748;2023-04-03T04:11:51;7.55;;;2.28;;
34924;SDS011;21130;51.728;8.748;2023-04-03T04:14:18;4.65;;;2.17;;
34924;SDS011;21130;51.728;8.748;2023-04-03T04:16:45;7.40;;;2.80;;
34924;SDS011;21130;51.728;8.748;2023-04-03T04:19:11;4.85;;;1.88;;
34924;SDS011;21130;51.728;8.748;2023-04-03T04:21:38;4.40;;;2.30;;
34924;SDS011;21130;51.728;8.748;2023-04-03T04:24:07;4.78;;;2.42;;
34924;SDS011;21130;51.728;8.748;2023-04-03T04:26:34;5.68;;;2.28;;
34924;SDS011;21130;51.728;8.748;2023-04-03T04:29:00;4.50;;;2.25;;
34924;SDS011;21130;51.728;8.748;2023-04-03T04:31:27;3.58;;;2.20;;
34924;SDS011;21130;51.728;8.748;2023-04-03T04:33:53;7.70;;;2.10;;
34924;SDS011;21130;51.728;8.748;2023-04-03T04:36:20;6.30;;;2.40;;
34924;SDS011;21130;51.728;8.748;2023-04-03T04:38:47;4.82;;;2.17;;
34924;SDS011;21130;51.728;8.748;2023-04-03T04:41:14;4.25;;;2.20;;
34924;SDS011;21130;51.728;8.748;2023-04-03T04:43:41;7.82;;;2.70;;
34924;SDS011;21130;51.728;8.748;2023-04-03T04:46:08;4.93;;;2.58;;
34924;SDS011;21130;51.728;8.748;2023-04-03T04:48:36;6.30;;;2.42;;
34924;SDS011;21130;51.728;8.748;2023-04-03T04:51:03;5.97;;;2.22;;
34924;SDS011;21130;51.728;8.748;2023-04-03T04:53:30;8.15;;;2.92;;
34924;SDS011;21130;51.728;8.748;2023-04-03T04:55:56;7.10;;;2.53;;
34924;SDS011;21130;51.728;8.748;2023-04-03T04:58:24;6.45;;;2.35;;
34924;SDS011;21130;51.728;8.748;2023-04-03T05:00:57;5.78;;;2.20;;
34924;SDS011;21130;51.728;8.748;2023-04-03T05:03:24;4.07;;;2.30;;
34924;SDS011;21130;51.728;8.748;2023-04-03T05:05:51;4.90;;;2.45;;
34924;SDS011;21130;51.728;8.748;2023-04-03T05:08:17;6.22;;;2.75;;
34924;SDS011;21130;51.728;8.748;2023-04-03T05:10:44;5.32;;;2.22;;
34924;SDS011;21130;51.728;8.748;2023-04-03T05:13:11;5.15;;;2.17;;
34924;SDS011;21130;51.728;8.748;2023-04-03T05:15:39;5.60;;;2.50;;
34924;SDS011;21130;51.728;8.748;2023-04-03T05:18:06;6.68;;;2.05;;
34924;SDS011;21130;51.728;8.748;2023-04-03T05:20:33;5.70;;;2.22;;
34924;SDS011;21130;51.728;8.748;2023-04-03T05:22:59;6.75;;;2.17;;
34924;SDS011;21130;51.728;8.748;2023-04-03T05:25:26;4.47;;;2.33;;
34924;SDS011;21130;51.728;8.748;2023-04-03T05:27:53;4.60;;;2.67;;
34924;SDS011;21130;51.728;8.748;2023-04-03T05:30:19;9.85;;;2.90;;
34924;SDS011;21130;51.728;8.748;2023-04-03T05:32:47;6.03;;;2.60;;
34924;SDS011;21130;51.728;8.748;2023-04-03T05:35:14;5.03;;;2.58;;
34924;SDS011;21130;51.728;8.748;2023-04-03T05:37:40;6.53;;;2.50;;
34924;SDS011;21130;51.728;8.748;2023-04-03T05:40:08;4.47;;;2.47;;
34924;SDS011;21130;51.728;8.748;2023-04-03T05:42:35;5.95;;;2.83;;
34924;SDS011;21130;51.728;8.748;2023-04-03T05:45:02;4.95;;;3.00;;
34924;SDS011;21130;51.728;8.748;2023-04-03T05:47:29;8.70;;;3.65;;
34924;SDS011;21130;51.728;8.748;2023-04-03T05:49:57;6.90;;;2.97;;
34924;SDS011;21130;51.728;8.748;2023-04-03T05:52:25;6.88;;;2.83;;
34924;SDS011;21130;51.728;8.748;2023-04-03T05:54:53;7.43;;;2.95;;
34924;SDS011;21130;51.728;8.748;2023-04-03T05:57:20;6.55;;;2.38;;
34924;SDS011;21130;51.728;8.748;2023-04-03T05:59:47;7.00;;;2.53;;
34924;SDS011;21130;51.728;8.748;2023-04-03T06:02:16;8.40;;;2.80;;
34924;SDS011;21130;51.728;8.748;2023-04-03T06:04:44;7.80;;;2.80;;
34924;SDS011;21130;51.728;8.748;2023-04-03T06:07:13;6.88;;;2.58;;
34924;SDS011;21130;51.728;8.748;2023-04-03T06:09:42;6.80;;;3.22;;
34924;SDS011;21130;51.728;8.748;2023-04-03T06:12:09;7.88;;;2.50;;
34924;SDS011;21130;51.728;8.748;2023-04-03T06:14:36;9.40;;;2.53;;
34924;SDS011;21130;51.728;8.748;2023-04-03T06:17:02;8.77;;;2.78;;
34924;SDS011;21130;51.728;8.748;2023-04-03T06:19:29;8.13;;;2.80;;
34924;SDS011;21130;51.728;8.748;2023-04-03T06:21:56;7.35;;;2.83;;
34924;SDS011;21130;51.728;8.748;2023-04-03T06:24:24;8.57;;;2.70;;
34924;SDS011;21130;51.728;8.748;2023-04-03T06:26:51;7.18;;;2.80;;
34924;SDS011;21130;51.728;8.748;2023-04-03T06:29:19;8.02;;;3.10;;
34924;SDS011;21130;51.728;8.748;2023-04-03T06:31:46;5.60;;;2.72;;
34924;SDS011;21130;51.728;8.748;2023-04-03T06:34:13;5.15;;;3.25;;
34924;SDS011;21130;51.728;8.748;2023-04-03T06:36:40;6.65;;;3.08;;
34924;SDS011;21130;51.728;8.748;2023-04-03T06:39:08;9.82;;;3.55;;
34924;SDS011;21130;51.728;8.748;2023-04-03T06:41:37;9.05;;;2.83;;
34924;SDS011;21130;51.728;8.748;2023-04-03T06:44:03;4.22;;;2.80;;
34924;SDS011;21130;51.728;8.748;2023-04-03T06:46:30;3.50;;;2.10;;
34924;SDS011;21130;51.728;8.748;2023-04-03T06:48:56;4.85;;;2.10;;
34924;SDS011;21130;51.728;8.748;2023-04-03T06:51:24;4.60;;;2.20;;
34924;SDS011;21130;51.728;8.748;2023-04-03T06:53:52;8.30;;;3.08;;
34924;SDS011;21130;51.728;8.748;2023-04-03T06:56:20;4.93;;;2.20;;
34924;SDS011;21130;51.728;8.748;2023-04-03T06:58:48;5.78;;;2.15;;
34924;SDS011;21130;51.728;8.748;2023-04-03T07:01:16;7.10;;;2.20;;
34924;SDS011;21130;51.728;8.748;2023-04-03T07:03:44;4.82;;;2.50;;
34924;SDS011;21130;51.728;8.748;2023-04-03T07:06:13;3.60;;;2.60;;
34924;SDS011;21130;51.728;8.748;2023-04-03T07:08:42;5.57;;;2.05;;
34924;SDS011;21130;51.728;8.748;2023-04-03T07:11:09;9.18;;;2.30;;
34924;SDS011;21130;51.728;8.748;2023-04-03T07:13:37;4.60;;;2.30;;
34924;SDS011;21130;51.728;8.748;2023-04-03T07:16:05;4.43;;;2.33;;
34924;SDS011;21130;51.728;8.748;2023-04-03T07:18:33;5.18;;;2.10;;
34924;SDS011;21130;51.728;8.748;2023-04-03T07:21:00;4.78;;;1.85;;
34924;SDS011;21130;51.728;8.748;2023-04-03T07:23:26;4.40;;;2.05;;
34924;SDS011;21130;51.728;8.748;2023-04-03T07:25:53;5.13;;;1.95;;
34924;SDS011;21130;51.728;8.748;2023-04-03T07:28:21;5.28;;;2.10;;
34924;SDS011;21130;51.728;8.748;2023-04-03T07:30:49;3.45;;;2.00;;
34924;SDS011;21130;51.728;8.748;2023-04-03T07:33:18;4.20;;;1.98;;
34924;SDS011;21130;51.728;8.748;2023-04-03T07:35:46;3.78;;;2.30;;
34924;SDS011;21130;51.728;8.748;2023-04-03T07:38:12;4.70;;;2.20;;
34924;SDS011;21130;51.728;8.748;2023-04-03T07:40:39;6.55;;;1.88;;
34924;SDS011;21130;51.728;8.748;2023-04-03T07:43:06;5.45;;;1.70;;
34924;SDS011;21130;51.728;8.748;2023-04-03T07:45:34;3.65;;;1.58;;
34924;SDS011;21130;51.728;8.748;2023-04-03T07:48:01;3.63;;;1.45;;
34924;SDS011;21130;51.728;8.748;2023-04-03T07:50:30;4.10;;;2.33;;
34924;SDS011;21130;51.728;8.748;2023-04-03T07:52:57;6.03;;;2.03;;
34924;SDS011;21130;51.728;8.748;2023-04-03T07:55:24;4.85;;;2.53;;
34924;SDS011;21130;51.728;8.748;2023-04-03T07:57:51;6.50;;;1.95;;
34924;SDS011;21130;51.728;8.748;2023-04-03T08:00:18;5.22;;;2.65;;
34924;SDS011;21130;51.728;8.748;2023-04-03T08:02:45;3.38;;;1.85;;
34924;SDS011;21130;51.728;8.748;2023-04-03T08:05:15;3.53;;;2.15;;
34924;SDS011;21130;51.728;8.748;2023-04-03T08:07:43;5.45;;;2.80;;
34924;SDS011;21130;51.728;8.748;2023-04-03T08:10:10;2.88;;;1.67;;
34924;SDS011;21130;51.728;8.748;2023-04-03T08:12:36;4.90;;;2.55;;
34924;SDS011;21130;51.728;8.748;2023-04-03T08:15:03;8.13;;;3.22;;
34924;SDS011;21130;51.728;8.748;2023-04-03T08:17:30;3.63;;;2.03;;
34924;SDS011;21130;51.728;8.748;2023-04-03T08:19:57;3.58;;;1.83;;
34924;SDS011;21130;51.728;8.748;2023-04-03T08:22:23;2.35;;;1.63;;
34924;SDS011;21130;51.728;8.748;2023-04-03T08:24:51;4.38;;;1.83;;
34924;SDS011;21130;51.728;8.748;2023-04-03T08:27:17;5.18;;;2.40;;
34924;SDS011;21130;51.728;8.748;2023-04-03T08:29:44;4.68;;;2.10;;
34924;SDS011;21130;51.728;8.748;2023-04-03T08:32:10;5.53;;;2.50;;
34924;SDS011;21130;51.728;8.748;2023-04-03T08:34:37;2.03;;;1.30;;
34924;SDS011;21130;51.728;8.748;2023-04-03T08:37:04;4.03;;;1.33;;
34924;SDS011;21130;51.728;8.748;2023-04-03T08:39:31;3.03;;;1.40;;
34924;SDS011;21130;51.728;8.748;2023-04-03T08:41:59;1.95;;;1.17;;
34924;SDS011;21130;51.728;8.748;2023-04-03T08:44:35;5.15;;;1.60;;
34924;SDS011;21130;51.728;8.748;2023-04-03T08:47:10;4.05;;;1.38;;
34924;SDS011;21130;51.728;8.748;2023-04-03T08:49:44;3.00;;;1.67;;
34924;SDS011;21130;51.728;8.748;2023-04-03T08:52:17;4.63;;;1.13;;
34924;SDS011;21130;51.728;8.748;2023-04-03T08:54:49;3.92;;;2.20;;
34924;SDS011;21130;51.728;8.748;2023-04-03T08:57:24;2.03;;;1.00;;
34924;SDS011;21130;51.728;8.748;2023-04-03T08:59:55;3.50;;;1.20;;
34924;SDS011;21130;51.728;8.748;2023-04-03T09:02:24;4.47;;;1.30;;
34924;SDS011;21130;51.728;8.748;2023-04-03T09:04:55;2.40;;;1.10;;
34924;SDS011;21130;51.728;8.748;2023-04-03T09:07:22;3.58;;;1.20;;
34924;SDS011;21130;51.728;8.748;2023-04-03T09:09:59;2.83;;;0.88;;
34924;SDS011;21130;51.728;8.748;2023-04-03T09:12:31;1.70;;;1.13;;
34924;SDS011;21130;51.728;8.748;2023-04-03T09:15:02;4.93;;;1.00;;
34924;SDS011;21130;51.728;8.748;2023-04-03T09:17:41;2.72;;;1.00;;
34924;SDS011;21130;51.728;8.748;2023-04-03T09:20:18;2.28;;;1.02;;
34924;SDS011;21130;51.728;8.748;2023-04-03T09:22:51;1.20;;;0.88;;
34924;SDS011;21130;51.728;8.748;2023-04-03T09:25:20;2.55;;;1.17;;
34924;SDS011;21130;51.728;8.748;2023-04-03T09:27:49;4.22;;;1.88;;
34924;SDS011;21130;51.728;8.748;2023-04-03T09:30:17;2.53;;;1.25;;
34924;SDS011;21130;51.728;8.748;2023-04-03T09:32:46;2.17;;;1.10;;
34924;SDS011;21130;51.728;8.748;2023-04-03T09:35:18;1.98;;;0.90;;
34924;SDS011;21130;51.728;8.748;2023-04-03T09:37:47;3.42;;;1.08;;
34924;SDS011;21130;51.728;8.748;2023-04-03T09:40:28;2.58;;;1.08;;
34924;SDS011;21130;51.728;8.748;2023-04-03T09:43:02;2.13;;;1.05;;
34924;SDS011;21130;51.728;8.748;2023-04-03T09:45:54;2.40;;;1.05;;
34924;SDS011;21130;51.728;8.748;2023-04-03T09:48:23;2.50;;;1.02;;
34924;SDS011;21130;51.728;8.748;2023-04-03T09:50:54;2.53;;;0.80;;
34924;SDS011;21130;51.728;8.748;2023-04-03T09:53:31;1.23;;;0.70;;
34924;SDS011;21130;51.728;8.748;2023-04-03T09:56:01;5.85;;;1.23;;
34924;SDS011;21130;51.728;8.748;2023-04-03T09:58:31;2.28;;;1.10;;
34924;SDS011;21130;51.728;8.748;2023-04-03T10:01:03;2.58;;;0.88;;
34924;SDS011;21130;51.728;8.748;2023-04-03T10:03:31;3.10;;;1.08;;
34924;SDS011;21130;51.728;8.748;2023-04-03T10:06:00;3.65;;;1.30;;
34924;SDS011;21130;51.728;8.748;2023-04-03T10:08:29;1.45;;;0.85;;
34924;SDS011;21130;51.728;8.748;2023-04-03T10:11:08;2.33;;;1.00;;
34924;SDS011;21130;51.728;8.748;2023-04-03T10:13:49;2.25;;;1.08;;
34924;SDS011;21130;51.728;8.748;2023-04-03T10:16:17;2.38;;;0.77;;
34924;SDS011;21130;51.728;8.748;2023-04-03T10:18:46;3.13;;;1.25;;
34924;SDS011;21130;51.728;8.748;2023-04-03T10:21:20;2.13;;;1.00;;
34924;SDS011;21130;51.728;8.748;2023-04-03T10:23:55;2.75;;;1.10;;
34924;SDS011;21130;51.728;8.748;2023-04-03T10:26:32;1.73;;;0.90;;
34924;SDS011;21130;51.728;8.748;2023-04-03T10:29:09;3.03;;;1.10;;
34924;SDS011;21130;51.728;8.748;2023-04-03T10:31:49;1.98;;;0.80;;
34924;SDS011;21130;51.728;8.748;2023-04-03T10:34:25;3.33;;;1.17;;
34924;SDS011;21130;51.728;8.748;2023-04-03T10:36:56;2.78;;;0.98;;
34924;SDS011;21130;51.728;8.748;2023-04-03T10:39:32;2.50;;;0.93;;
34924;SDS011;21130;51.728;8.748;2023-04-03T10:42:05;3.45;;;1.08;;
34924;SDS011;21130;51.728;8.748;2023-04-03T10:44:40;1.90;;;0.82;;
34924;SDS011;21130;51.728;8.748;2023-04-03T10:47:18;2.80;;;1.00;;
34924;SDS011;21130;51.728;8.748;2023-04-03T10:50:13;2.53;;;1.48;;
34924;SDS011;21130;51.728;8.748;2023-04-03T10:52:54;2.70;;;1.15;;
34924;SDS011;21130;51.728;8.748;2023-04-03T10:55:30;2.90;;;1.35;;
34924;SDS011;21130;51.728;8.748;2023-04-03T10:58:02;1.92;;;1.00;;
34924;SDS011;21130;51.728;8.748;2023-04-03T11:00:33;1.75;;;0.88;;
34924;SDS011;21130;51.728;8.748;2023-04-03T11:03:04;2.30;;;1.10;;
34924;SDS011;21130;51.728;8.748;2023-04-03T11:05:39;3.60;;;1.13;;
34924;SDS011;21130;51.728;8.748;2023-04-03T11:08:10;2.47;;;1.17;;
34924;SDS011;21130;51.728;8.748;2023-04-03T11:10:44;3.53;;;1.13;;
34924;SDS011;21130;51.728;8.748;2023-04-03T11:13:15;1.88;;;1.15;;
34924;SDS011;21130;51.728;8.748;2023-04-03T11:15:49;2.38;;;1.13;;
34924;SDS011;21130;51.728;8.748;2023-04-03T11:18:19;3.05;;;1.10;;
34924;SDS011;21130;51.728;8.748;2023-04-03T11:20:50;2.50;;;1.00;;
34924;SDS011;21130;51.728;8.748;2023-04-03T11:23:28;2.83;;;1.20;;
34924;SDS011;21130;51.728;8.748;2023-04-03T11:26:00;3.58;;;1.10;;
34924;SDS011;21130;51.728;8.748;2023-04-03T11:28:34;1.58;;;0.85;;
34924;SDS011;21130;51.728;8.748;2023-04-03T11:31:06;2.70;;;0.93;;
34924;SDS011;21130;51.728;8.748;2023-04-03T11:33:42;2.08;;;1.13;;
34924;SDS011;21130;51.728;8.748;2023-04-03T11:36:18;3.83;;;1.33;;
34924;SDS011;21130;51.728;8.748;2023-04-03T11:38:47;1.95;;;1.00;;
34924;SDS011;21130;51.728;8.748;2023-04-03T11:41:24;2.25;;;0.90;;
34924;SDS011;21130;51.728;8.748;2023-04-03T11:43:56;2.15;;;1.05;;
34924;SDS011;21130;51.728;8.748;2023-04-03T11:58:25;2.20;;;1.00;;
34924;SDS011;21130;51.728;8.748;2023-04-03T12:00:54;3.20;;;1.55;;
34924;SDS011;21130;51.728;8.748;2023-04-03T12:12:31;1.80;;;1.15;;
34924;SDS011;21130;51.728;8.748;2023-04-03T12:15:17;3.35;;;1.40;;
34924;SDS011;21130;51.728;8.748;2023-04-03T12:17:47;4.82;;;1.73;;
34924;SDS011;21130;51.728;8.748;2023-04-03T12:23:28;3.39;;;1.34;;
34924;SDS011;21130;51.728;8.748;2023-04-03T12:26:00;2.10;;;1.15;;
34924;SDS011;21130;51.728;8.748;2023-04-03T12:28:31;1.73;;;1.27;;
34924;SDS011;21130;51.728;8.748;2023-04-03T12:31:05;5.95;;;1.40;;
34924;SDS011;21130;51.728;8.748;2023-04-03T12:33:38;2.30;;;1.23;;
34924;SDS011;21130;51.728;8.748;2023-04-03T12:36:23;2.15;;;1.30;;
34924;SDS011;21130;51.728;8.748;2023-04-03T12:39:06;1.60;;;1.30;;
34924;SDS011;21130;51.728;8.748;2023-04-03T12:41:43;2.92;;;1.25;;
34924;SDS011;21130;51.728;8.748;2023-04-03T12:44:22;3.15;;;1.27;;
34924;SDS011;21130;51.728;8.748;2023-04-03T12:46:59;2.20;;;1.10;;
34924;SDS011;21130;51.728;8.748;2023-04-03T12:49:33;2.25;;;1.30;;
34924;SDS011;21130;51.728;8.748;2023-04-03T12:52:04;1.63;;;1.23;;
34924;SDS011;21130;51.728;8.748;2023-04-03T12:54:44;4.80;;;1.33;;
34924;SDS011;21130;51.728;8.748;2023-04-03T12:57:16;4.38;;;1.40;;
34924;SDS011;21130;51.728;8.748;2023-04-03T12:59:44;2.53;;;1.20;;
34924;SDS011;21130;51.728;8.748;2023-04-03T13:02:17;4.03;;;1.38;;
34924;SDS011;21130;51.728;8.748;2023-04-03T13:04:48;2.22;;;1.38;;
34924;SDS011;21130;51.728;8.748;2023-04-03T13:07:20;2.88;;;1.50;;
34924;SDS011;21130;51.728;8.748;2023-04-03T13:09:56;2.67;;;1.80;;
34924;SDS011;21130;51.728;8.748;2023-04-03T13:12:28;1.73;;;1.27;;
34924;SDS011;21130;51.728;8.748;2023-04-03T13:14:55;7.35;;;3.03;;
34924;SDS011;21130;51.728;8.748;2023-04-03T13:17:24;3.25;;;2.30;;
34924;SDS011;21130;51.728;8.748;2023-04-03T13:19:52;5.28;;;2.00;;
34924;SDS011;21130;51.728;8.748;2023-04-03T13:22:24;2.45;;;1.27;;
34924;SDS011;21130;51.728;8.748;2023-04-03T13:24:58;3.85;;;2.20;;
34924;SDS011;21130;51.728;8.748;2023-04-03T13:27:28;4.35;;;1.25;;
34924;SDS011;21130;51.728;8.748;2023-04-03T13:29:57;3.50;;;2.17;;
34924;SDS011;21130;51.728;8.748;2023-04-03T13:32:26;5.93;;;2.67;;
34924;SDS011;21130;51.728;8.748;2023-04-03T13:34:55;2.28;;;1.05;;
34924;SDS011;21130;51.728;8.748;2023-04-03T13:37:23;1.67;;;1.10;;
34924;SDS011;21130;51.728;8.748;2023-04-03T13:40:02;4.50;;;1.70;;
34924;SDS011;21130;51.728;8.748;2023-04-03T13:42:30;3.20;;;1.65;;
34924;SDS011;21130;51.728;8.748;2023-04-03T13:45:18;5.45;;;2.95;;
34924;SDS011;21130;51.728;8.748;2023-04-03T13:47:47;3.30;;;1.88;;
34924;SDS011;21130;51.728;8.748;2023-04-03T13:50:17;3.55;;;1.30;;
34924;SDS011;21130;51.728;8.748;2023-04-03T13:52:46;5.85;;;2.20;;
34924;SDS011;21130;51.728;8.748;2023-04-03T13:55:19;3.35;;;1.95;;
34924;SDS011;21130;51.728;8.748;2023-04-03T13:57:49;2.13;;;1.70;;
34924;SDS011;21130;51.728;8.748;2023-04-03T14:00:19;2.50;;;1.17;;
34924;SDS011;21130;51.728;8.748;2023-04-03T14:02:48;3.42;;;1.38;;
34924;SDS011;21130;51.728;8.748;2023-04-03T14:05:14;5.15;;;2.85;;
34924;SDS011;21130;51.728;8.748;2023-04-03T14:07:43;4.03;;;1.70;;
34924;SDS011;21130;51.728;8.748;2023-04-03T14:10:09;5.05;;;2.22;;
34924;SDS011;21130;51.728;8.748;2023-04-03T14:12:37;6.82;;;2.20;;
34924;SDS011;21130;51.728;8.748;2023-04-03T14:15:07;4.95;;;2.15;;
34924;SDS011;21130;51.728;8.748;2023-04-03T14:17:43;4.40;;;2.17;;
34924;SDS011;21130;51.728;8.748;2023-04-03T14:20:10;2.47;;;1.58;;
34924;SDS011;21130;51.728;8.748;2023-04-03T14:22:40;4.82;;;2.35;;
34924;SDS011;21130;51.728;8.748;2023-04-03T14:25:07;4.25;;;2.40;;
34924;SDS011;21130;51.728;8.748;2023-04-03T14:27:34;2.65;;;1.33;;
34924;SDS011;21130;51.728;8.748;2023-04-03T14:30:04;5.00;;;1.42;;
34924;SDS011;21130;51.728;8.748;2023-04-03T14:32:34;4.25;;;1.50;;
34924;SDS011;21130;51.728;8.748;2023-04-03T14:35:01;2.58;;;1.00;;
34924;SDS011;21130;51.728;8.748;2023-04-03T14:37:28;1.75;;;1.00;;
34924;SDS011;21130;51.728;8.748;2023-04-03T14:39:57;2.65;;;1.40;;
34924;SDS011;21130;51.728;8.748;2023-04-03T14:42:26;2.83;;;1.25;;
34924;SDS011;21130;51.728;8.748;2023-04-03T14:44:55;2.10;;;1.23;;
34924;SDS011;21130;51.728;8.748;2023-04-03T14:47:23;1.75;;;0.95;;
34924;SDS011;21130;51.728;8.748;2023-04-03T14:49:53;4.10;;;1.30;;
34924;SDS011;21130;51.728;8.748;2023-04-03T14:52:20;3.17;;;1.30;;
34924;SDS011;21130;51.728;8.748;2023-04-03T14:54:49;3.33;;;1.50;;
34924;SDS011;21130;51.728;8.748;2023-04-03T14:57:16;2.00;;;1.23;;
34924;SDS011;21130;51.728;8.748;2023-04-03T14:59:43;3.25;;;1.20;;
34924;SDS011;21130;51.728;8.748;2023-04-03T15:02:30;2.35;;;1.27;;
34924;SDS011;21130;51.728;8.748;2023-04-03T15:04:58;2.95;;;1.23;;
34924;SDS011;21130;51.728;8.748;2023-04-03T15:07:26;3.83;;;1.10;;
34924;SDS011;21130;51.728;8.748;2023-04-03T15:09:54;3.25;;;1.10;;
34924;SDS011;21130;51.728;8.748;2023-04-03T15:12:21;1.67;;;1.13;;
34924;SDS011;21130;51.728;8.748;2023-04-03T15:14:48;1.98;;;1.15;;
34924;SDS011;21130;51.728;8.748;2023-04-03T15:17:16;3.28;;;1.70;;
34924;SDS011;21130;51.728;8.748;2023-04-03T15:19:47;3.17;;;1.20;;
34924;SDS011;21130;51.728;8.748;2023-04-03T15:22:14;2.88;;;1.30;;
34924;SDS011;21130;51.728;8.748;2023-04-03T15:24:42;5.40;;;3.10;;
34924;SDS011;21130;51.728;8.748;2023-04-03T15:27:09;7.22;;;3.60;;